Weather at Kiewit Airfield Hasselt

Public forecast

Using degrees Celsius for public forecast. Weather courtesy of forecast.io.

Closest aviation weather report (METAR) to Kiewit Airfield Hasselt

Closest report is Schaffen Airfield, 11.8 nm (21.9 km) W. Retrieved 2021/08/05 12:55 UTC (6 minutes ago):

EBDT 051255Z AUTO 18005KT 9999 FEW039/// BKN062/// 22/13 Q1007 BLU

Closest aviation forecast (TAF) to Kiewit Airfield Hasselt

Forecast is more than 12 hours old.

Closest forecast is Schaffen Airfield, 11.8 nm (21.9 km) W. Retrieved 2021/05/27 19:57 UTC (2 months ago):

TAF EBDT 271541Z 2719/2807 30010KT 9999 SCT025 BKN035 BECMG 2720/2722 33005KT FEW020 PROB40 TEMPO 2802/2806 VRB03KT 1600 BR SCT002